sensor_id;sensor_type;location;lat;lon;timestamp;pressure;altitude;pressure_sealevel;temperature;humidity
11099;BME280;12223;42.650;23.364;2023-05-09T00:00:06;94980.00;;;13.92;100.00
11099;BME280;12223;42.650;23.364;2023-05-09T00:02:35;94984.41;;;13.86;100.00
11099;BME280;12223;42.650;23.364;2023-05-09T00:05:03;94988.78;;;13.92;100.00
11099;BME280;12223;42.650;23.364;2023-05-09T00:07:30;94977.47;;;13.85;100.00
11099;BME280;12223;42.650;23.364;2023-05-09T00:09:58;94981.06;;;13.91;100.00
11099;BME280;12223;42.650;23.364;2023-05-09T00:12:25;94978.41;;;13.91;100.00
11099;BME280;12223;42.650;23.364;2023-05-09T00:14:52;94980.59;;;13.94;100.00
11099;BME280;12223;42.650;23.364;2023-05-09T00:17:22;94986.47;;;13.96;100.00
11099;BME280;12223;42.650;23.364;2023-05-09T00:19:49;94983.56;;;13.97;100.00
11099;BME280;12223;42.650;23.364;2023-05-09T00:22:17;94982.44;;;13.93;100.00
11099;BME280;12223;42.650;23.364;2023-05-09T00:24:45;94974.03;;;13.73;100.00
11099;BME280;12223;42.650;23.364;2023-05-09T00:27:14;94963.91;;;13.70;100.00
11099;BME280;12223;42.650;23.364;2023-05-09T00:29:41;94969.41;;;13.80;100.00
11099;BME280;12223;42.650;23.364;2023-05-09T00:32:08;94971.50;;;13.90;100.00
11099;BME280;12223;42.650;23.364;2023-05-09T00:34:35;94974.53;;;13.70;100.00
11099;BME280;12223;42.650;23.364;2023-05-09T00:37:02;94974.84;;;13.74;100.00
11099;BME280;12223;42.650;23.364;2023-05-09T00:39:29;94967.56;;;13.81;100.00
11099;BME280;12223;42.650;23.364;2023-05-09T00:41:56;94969.09;;;13.77;100.00
11099;BME280;12223;42.650;23.364;2023-05-09T00:44:24;94969.78;;;13.84;100.00
11099;BME280;12223;42.650;23.364;2023-05-09T00:46:50;94974.84;;;13.74;100.00
11099;BME280;12223;42.650;23.364;2023-05-09T00:49:17;94969.53;;;13.74;100.00
11099;BME280;12223;42.650;23.364;2023-05-09T00:51:44;94974.38;;;13.88;100.00
11099;BME280;12223;42.650;23.364;2023-05-09T00:54:13;94977.47;;;13.85;100.00
11099;BME280;12223;42.650;23.364;2023-05-09T00:56:39;94979.09;;;13.86;100.00
11099;BME280;12223;42.650;23.364;2023-05-09T00:59:06;94974.28;;;13.83;100.00
11099;BME280;12223;42.650;23.364;2023-05-09T01:01:35;94981.75;;;13.86;100.00
11099;BME280;12223;42.650;23.364;2023-05-09T01:04:02;94979.78;;;13.93;100.00
11099;BME280;12223;42.650;23.364;2023-05-09T01:06:37;94982.78;;;13.97;100.00
11099;BME280;12223;42.650;23.364;2023-05-09T01:09:14;94983.22;;;14.05;100.00
11099;BME280;12223;42.650;23.364;2023-05-09T01:11:49;94984.25;;;14.04;100.00
11099;BME280;12223;42.650;23.364;2023-05-09T01:14:23;94983.31;;;14.10;100.00
11099;BME280;12223;42.650;23.364;2023-05-09T01:17:00;94967.28;;;14.05;100.00
11099;BME280;12223;42.650;23.364;2023-05-09T01:19:49;94988.97;;;14.14;100.00
11099;BME280;12223;42.650;23.364;2023-05-09T01:22:18;94993.25;;;14.15;100.00
11099;BME280;12223;42.650;23.364;2023-05-09T01:27:57;94976.50;;;14.15;100.00
11099;BME280;12223;42.650;23.364;2023-05-09T01:30:30;94981.72;;;14.09;100.00
11099;BME280;12223;42.650;23.364;2023-05-09T01:33:05;94980.56;;;14.05;100.00
11099;BME280;12223;42.650;23.364;2023-05-09T01:35:35;94977.91;;;14.05;100.00
11099;BME280;12223;42.650;23.364;2023-05-09T01:38:09;94975.59;;;14.09;100.00
11099;BME280;12223;42.650;23.364;2023-05-09T01:40:39;94983.06;;;14.12;100.00
11099;BME280;12223;42.650;23.364;2023-05-09T01:43:09;94983.66;;;14.14;100.00
11099;BME280;12223;42.650;23.364;2023-05-09T01:45:38;94976.16;;;14.11;100.00
11099;BME280;12223;42.650;23.364;2023-05-09T01:48:07;94974.88;;;14.14;100.00
11099;BME280;12223;42.650;23.364;2023-05-09T01:50:35;94975.09;;;14.12;100.00
11099;BME280;12223;42.650;23.364;2023-05-09T01:53:04;94975.59;;;14.09;100.00
11099;BME280;12223;42.650;23.364;2023-05-09T01:55:34;94975.59;;;14.09;100.00
11099;BME280;12223;42.650;23.364;2023-05-09T01:58:04;94986.44;;;14.07;100.00
11099;BME280;12223;42.650;23.364;2023-05-09T02:00:32;94977.19;;;14.10;100.00
11099;BME280;12223;42.650;23.364;2023-05-09T02:03:04;94969.22;;;14.10;100.00
11099;BME280;12223;42.650;23.364;2023-05-09T02:05:31;94981.00;;;14.14;100.00
11099;BME280;12223;42.650;23.364;2023-05-09T02:08:00;94982.03;;;14.13;100.00
11099;BME280;12223;42.650;23.364;2023-05-09T02:10:27;94982.63;;;14.15;100.00
11099;BME280;12223;42.650;23.364;2023-05-09T02:12:54;94976.97;;;14.12;100.00
11099;BME280;12223;42.650;23.364;2023-05-09T02:15:22;94982.13;;;14.18;100.00
11099;BME280;12223;42.650;23.364;2023-05-09T02:17:48;94982.94;;;14.19;100.00
11099;BME280;12223;42.650;23.364;2023-05-09T02:20:17;94980.88;;;14.21;100.00
11099;BME280;12223;42.650;23.364;2023-05-09T02:22:44;94978.75;;;14.23;100.00
11099;BME280;12223;42.650;23.364;2023-05-09T02:25:12;94978.75;;;14.23;100.00
11099;BME280;12223;42.650;23.364;2023-05-09T02:27:42;94981.41;;;14.23;100.00
11099;BME280;12223;42.650;23.364;2023-05-09T02:30:13;94978.75;;;14.23;100.00
11099;BME280;12223;42.650;23.364;2023-05-09T02:32:42;94972.00;;;14.15;100.00
11099;BME280;12223;42.650;23.364;2023-05-09T02:35:12;94986.41;;;14.19;100.00
11099;BME280;12223;42.650;23.364;2023-05-09T02:37:44;94989.88;;;14.20;100.00
11099;BME280;12223;42.650;23.364;2023-05-09T02:40:12;94980.06;;;14.20;100.00
11099;BME280;12223;42.650;23.364;2023-05-09T02:42:39;94990.91;;;14.19;100.00
11099;BME280;12223;42.650;23.364;2023-05-09T02:45:08;94992.53;;;14.20;100.00
11099;BME280;12223;42.650;23.364;2023-05-09T02:47:36;94989.88;;;14.20;100.00
11099;BME280;12223;42.650;23.364;2023-05-09T02:50:04;94981.09;;;14.19;100.00
11099;BME280;12223;42.650;23.364;2023-05-09T02:52:31;94985.16;;;14.10;100.00
11099;BME280;12223;42.650;23.364;2023-05-09T02:54:59;94986.22;;;14.09;100.00
11099;BME280;12223;42.650;23.364;2023-05-09T02:57:26;94982.06;;;14.01;100.00
11099;BME280;12223;42.650;23.364;2023-05-09T02:59:53;94982.78;;;13.97;100.00
11099;BME280;12223;42.650;23.364;2023-05-09T03:02:20;94989.25;;;13.89;100.00
11099;BME280;12223;42.650;23.364;2023-05-09T03:04:48;94989.03;;;13.79;100.00
11099;BME280;12223;42.650;23.364;2023-05-09T03:07:15;94985.84;;;13.77;100.00
11099;BME280;12223;42.650;23.364;2023-05-09T03:09:42;94990.88;;;13.79;100.00
11099;BME280;12223;42.650;23.364;2023-05-09T03:12:10;94992.50;;;13.80;100.00
11099;BME280;12223;42.650;23.364;2023-05-09T03:14:37;94989.03;;;13.79;100.00
11099;BME280;12223;42.650;23.364;2023-05-09T03:17:04;94995.53;;;13.72;100.00
11099;BME280;12223;42.650;23.364;2023-05-09T03:19:31;94990.22;;;13.72;100.00
11099;BME280;12223;42.650;23.364;2023-05-09T03:21:58;94993.13;;;13.58;100.00
11099;BME280;12223;42.650;23.364;2023-05-09T03:24:25;94984.13;;;13.36;100.00
11099;BME280;12223;42.650;23.364;2023-05-09T03:26:52;94991.16;;;13.31;100.00
11099;BME280;12223;42.650;23.364;2023-05-09T03:29:21;94984.47;;;13.28;100.00
11099;BME280;12223;42.650;23.364;2023-05-09T03:31:48;94987.22;;;13.21;100.00
11099;BME280;12223;42.650;23.364;2023-05-09T03:34:14;94989.63;;;13.11;100.00
11099;BME280;12223;42.650;23.364;2023-05-09T03:36:41;94974.72;;;12.99;100.00
11099;BME280;12223;42.650;23.364;2023-05-09T03:39:09;94980.84;;;12.99;100.00
11099;BME280;12223;42.650;23.364;2023-05-09T03:41:36;94973.47;;;12.89;100.00
11099;BME280;12223;42.650;23.364;2023-05-09T03:44:03;94974.41;;;12.95;100.00
11099;BME280;12223;42.650;23.364;2023-05-09T03:46:31;94976.47;;;12.93;100.00
11099;BME280;12223;42.650;23.364;2023-05-09T03:48:58;94985.75;;;12.84;100.00
11099;BME280;12223;42.650;23.364;2023-05-09T03:51:27;94978.81;;;12.71;100.00
11099;BME280;12223;42.650;23.364;2023-05-09T03:53:55;94972.97;;;12.69;100.00
11099;BME280;12223;42.650;23.364;2023-05-09T03:56:21;94976.28;;;12.65;100.00
11099;BME280;12223;42.650;23.364;2023-05-09T03:58:48;94980.22;;;12.74;100.00
11099;BME280;12223;42.650;23.364;2023-05-09T04:01:15;94977.59;;;12.85;100.00
11099;BME280;12223;42.650;23.364;2023-05-09T04:03:44;94982.81;;;13.04;100.00
11099;BME280;12223;42.650;23.364;2023-05-09T04:06:11;95012.34;;;13.89;100.00
11099;BME280;12223;42.650;23.364;2023-05-09T04:08:38;95035.41;;;14.80;100.00
11099;BME280;12223;42.650;23.364;2023-05-09T04:11:05;95053.56;;;15.00;100.00
11099;BME280;12223;42.650;23.364;2023-05-09T04:13:32;95057.13;;;14.60;100.00
11099;BME280;12223;42.650;23.364;2023-05-09T04:15:59;95047.47;;;14.31;100.00
11099;BME280;12223;42.650;23.364;2023-05-09T04:18:27;95034.53;;;14.34;100.00
11099;BME280;12223;42.650;23.364;2023-05-09T04:20:56;95040.66;;;14.46;100.00
11099;BME280;12223;42.650;23.364;2023-05-09T04:23:23;95046.50;;;14.60;100.00
11099;BME280;12223;42.650;23.364;2023-05-09T04:25:50;95053.38;;;14.73;100.00
11099;BME280;12223;42.650;23.364;2023-05-09T04:28:18;95039.44;;;15.61;100.00
11099;BME280;12223;42.650;23.364;2023-05-09T04:30:45;95058.50;;;16.73;100.00
11099;BME280;12223;42.650;23.364;2023-05-09T04:33:12;95060.56;;;17.52;100.00
11099;BME280;12223;42.650;23.364;2023-05-09T04:35:39;95064.94;;;17.95;100.00
11099;BME280;12223;42.650;23.364;2023-05-09T04:38:08;95064.34;;;18.35;99.23
11099;BME280;12223;42.650;23.364;2023-05-09T04:40:34;95070.69;;;18.19;97.81
11099;BME280;12223;42.650;23.364;2023-05-09T04:43:01;95071.84;;;19.00;89.75
11099;BME280;12223;42.650;23.364;2023-05-09T04:45:28;95068.72;;;19.89;82.98
11099;BME280;12223;42.650;23.364;2023-05-09T04:47:56;95064.75;;;21.25;72.43
11099;BME280;12223;42.650;23.364;2023-05-09T04:50:22;95059.06;;;23.00;59.81
11099;BME280;12223;42.650;23.364;2023-05-09T04:52:49;95070.47;;;23.11;56.63
11099;BME280;12223;42.650;23.364;2023-05-09T04:55:17;95070.56;;;23.24;53.33
11099;BME280;12223;42.650;23.364;2023-05-09T04:57:44;95073.03;;;22.55;54.46
11099;BME280;12223;42.650;23.364;2023-05-09T05:00:12;95076.38;;;21.89;55.52
11099;BME280;12223;42.650;23.364;2023-05-09T05:02:41;95084.81;;;19.84;64.83
11099;BME280;12223;42.650;23.364;2023-05-09T05:05:08;95079.91;;;18.43;78.44
11099;BME280;12223;42.650;23.364;2023-05-09T05:07:34;95055.91;;;16.78;98.04
11099;BME280;12223;42.650;23.364;2023-05-09T05:10:01;95069.22;;;16.57;100.00
11099;BME280;12223;42.650;23.364;2023-05-09T05:12:32;95075.72;;;16.44;100.00
11099;BME280;12223;42.650;23.364;2023-05-09T05:14:59;95078.00;;;16.14;100.00
11099;BME280;12223;42.650;23.364;2023-05-09T05:17:26;95077.16;;;15.75;100.00
11099;BME280;12223;42.650;23.364;2023-05-09T05:19:53;95056.72;;;14.97;100.00
11099;BME280;12223;42.650;23.364;2023-05-09T05:22:20;95073.91;;;14.49;100.00
11099;BME280;12223;42.650;23.364;2023-05-09T05:24:47;95068.44;;;14.16;100.00
11099;BME280;12223;42.650;23.364;2023-05-09T05:27:14;95064.75;;;13.82;100.00
11099;BME280;12223;42.650;23.364;2023-05-09T05:29:42;95055.19;;;13.57;100.00
11099;BME280;12223;42.650;23.364;2023-05-09T05:32:09;95059.00;;;13.50;100.00
11099;BME280;12223;42.650;23.364;2023-05-09T05:34:36;95054.28;;;13.63;100.00
11099;BME280;12223;42.650;23.364;2023-05-09T05:37:03;95057.25;;;13.79;100.00
11099;BME280;12223;42.650;23.364;2023-05-09T05:39:30;95065.75;;;14.04;100.00
11099;BME280;12223;42.650;23.364;2023-05-09T05:41:57;95071.38;;;14.31;100.00
11099;BME280;12223;42.650;23.364;2023-05-09T05:44:24;95064.31;;;14.48;100.00
11099;BME280;12223;42.650;23.364;2023-05-09T05:46:52;95072.25;;;14.60;100.00
11099;BME280;12223;42.650;23.364;2023-05-09T05:49:19;95070.47;;;14.77;100.00
11099;BME280;12223;42.650;23.364;2023-05-09T05:51:45;95074.69;;;14.89;100.00
11099;BME280;12223;42.650;23.364;2023-05-09T05:54:13;95072.31;;;15.05;100.00
11099;BME280;12223;42.650;23.364;2023-05-09T05:56:39;95073.75;;;15.12;100.00
11099;BME280;12223;42.650;23.364;2023-05-09T05:59:08;95083.09;;;15.15;100.00
11099;BME280;12223;42.650;23.364;2023-05-09T06:01:35;95085.09;;;14.91;100.00
11099;BME280;12223;42.650;23.364;2023-05-09T06:04:05;95084.78;;;15.04;100.00
11099;BME280;12223;42.650;23.364;2023-05-09T06:06:33;95084.06;;;14.80;100.00
11099;BME280;12223;42.650;23.364;2023-05-09T06:09:00;95082.34;;;14.74;100.00
11099;BME280;12223;42.650;23.364;2023-05-09T06:11:27;95079.03;;;14.39;100.00
11099;BME280;12223;42.650;23.364;2023-05-09T06:13:54;95078.56;;;14.70;100.00
11099;BME280;12223;42.650;23.364;2023-05-09T06:16:21;95080.66;;;14.40;100.00
11099;BME280;12223;42.650;23.364;2023-05-09T06:18:48;95084.44;;;14.32;100.00
11099;BME280;12223;42.650;23.364;2023-05-09T06:21:16;95067.13;;;14.18;100.00
11099;BME280;12223;42.650;23.364;2023-05-09T06:23:53;95078.00;;;14.28;100.00
11099;BME280;12223;42.650;23.364;2023-05-09T06:26:19;95070.63;;;14.07;100.00
11099;BME280;12223;42.650;23.364;2023-05-09T06:28:47;95074.53;;;14.28;100.00
11099;BME280;12223;42.650;23.364;2023-05-09T06:31:14;95075.75;;;14.48;100.00
11099;BME280;12223;42.650;23.364;2023-05-09T06:33:40;95097.13;;;14.30;100.00
11099;BME280;12223;42.650;23.364;2023-05-09T06:36:08;95091.75;;;14.02;100.00
11099;BME280;12223;42.650;23.364;2023-05-09T06:38:36;95082.19;;;13.89;100.00
11099;BME280;12223;42.650;23.364;2023-05-09T06:41:03;95079.63;;;14.06;100.00
11099;BME280;12223;42.650;23.364;2023-05-09T06:43:30;95083.97;;;14.47;100.00
11099;BME280;12223;42.650;23.364;2023-05-09T06:45:57;95082.94;;;14.76;100.00
11099;BME280;12223;42.650;23.364;2023-05-09T06:48:23;95080.50;;;15.03;100.00
11099;BME280;12223;42.650;23.364;2023-05-09T06:50:51;95076.75;;;15.16;100.00
11099;BME280;12223;42.650;23.364;2023-05-09T06:53:18;95080.28;;;15.05;100.00
11099;BME280;12223;42.650;23.364;2023-05-09T06:55:46;95079.41;;;15.16;100.00
11099;BME280;12223;42.650;23.364;2023-05-09T06:58:15;95088.78;;;15.35;100.00
11099;BME280;12223;42.650;23.364;2023-05-09T07:00:43;95079.69;;;15.48;100.00
11099;BME280;12223;42.650;23.364;2023-05-09T07:03:09;95074.13;;;15.66;100.00
11099;BME280;12223;42.650;23.364;2023-05-09T07:05:37;95075.19;;;15.65;100.00
11099;BME280;12223;42.650;23.364;2023-05-09T07:08:04;95072.59;;;15.53;100.00
11099;BME280;12223;42.650;23.364;2023-05-09T07:10:31;95066.28;;;15.43;100.00
11099;BME280;12223;42.650;23.364;2023-05-09T07:12:59;95078.53;;;15.27;100.00
11099;BME280;12223;42.650;23.364;2023-05-09T07:15:26;95074.28;;;15.43;100.00
11099;BME280;12223;42.650;23.364;2023-05-09T07:17:53;95080.25;;;15.83;100.00
11099;BME280;12223;42.650;23.364;2023-05-09T07:20:20;95078.38;;;15.34;100.00
11099;BME280;12223;42.650;23.364;2023-05-09T07:22:47;95074.19;;;14.93;100.00
11099;BME280;12223;42.650;23.364;2023-05-09T07:25:14;95090.16;;;14.64;100.00
11099;BME280;12223;42.650;23.364;2023-05-09T07:27:41;95092.22;;;14.62;100.00
11099;BME280;12223;42.650;23.364;2023-05-09T07:30:09;95078.56;;;14.70;100.00
11099;BME280;12223;42.650;23.364;2023-05-09T07:32:37;95072.69;;;14.97;100.00
11099;BME280;12223;42.650;23.364;2023-05-09T07:35:04;95080.72;;;15.30;100.00
11099;BME280;12223;42.650;23.364;2023-05-09T07:37:31;95081.03;;;15.50;100.00
11099;BME280;12223;42.650;23.364;2023-05-09T07:39:59;95081.91;;;15.22;100.00
11099;BME280;12223;42.650;23.364;2023-05-09T07:42:28;95073.84;;;15.34;100.00
11099;BME280;12223;42.650;23.364;2023-05-09T07:44:57;95080.59;;;15.25;100.00
11099;BME280;12223;42.650;23.364;2023-05-09T07:47:26;95085.59;;;15.05;100.00
11099;BME280;12223;42.650;23.364;2023-05-09T07:49:53;95080.16;;;15.00;100.00
11099;BME280;12223;42.650;23.364;2023-05-09T07:52:20;95085.91;;;14.92;100.00
11099;BME280;12223;42.650;23.364;2023-05-09T07:54:47;95075.91;;;14.70;100.00
11099;BME280;12223;42.650;23.364;2023-05-09T07:57:14;95085.72;;;14.41;100.00
11099;BME280;12223;42.650;23.364;2023-05-09T07:59:41;95081.81;;;14.21;100.00
11099;BME280;12223;42.650;23.364;2023-05-09T08:02:08;95084.34;;;14.39;100.00
11099;BME280;12223;42.650;23.364;2023-05-09T08:04:38;95077.38;;;14.49;100.00
11099;BME280;12223;42.650;23.364;2023-05-09T08:07:05;95070.28;;;14.67;100.00
11099;BME280;12223;42.650;23.364;2023-05-09T08:09:33;95071.72;;;14.46;100.00
11099;BME280;12223;42.650;23.364;2023-05-09T08:12:00;95074.06;;;14.71;100.00
11099;BME280;12223;42.650;23.364;2023-05-09T08:14:27;95078.66;;;14.75;100.00
11099;BME280;12223;42.650;23.364;2023-05-09T08:16:55;95074.47;;;15.08;100.00
11099;BME280;12223;42.650;23.364;2023-05-09T08:19:22;95074.75;;;15.56;100.00
11099;BME280;12223;42.650;23.364;2023-05-09T08:21:52;95078.97;;;16.07;99.50
11099;BME280;12223;42.650;23.364;2023-05-09T08:24:20;95083.00;;;16.48;94.13
11099;BME280;12223;42.650;23.364;2023-05-09T08:26:47;95079.34;;;16.76;91.35
11099;BME280;12223;42.650;23.364;2023-05-09T08:29:13;95088.69;;;16.35;94.90
11099;BME280;12223;42.650;23.364;2023-05-09T08:31:40;95089.59;;;16.63;93.65
11099;BME280;12223;42.650;23.364;2023-05-09T08:34:08;95080.81;;;16.45;94.28
11099;BME280;12223;42.650;23.364;2023-05-09T08:36:35;95073.72;;;16.73;91.05
11099;BME280;12223;42.650;23.364;2023-05-09T08:39:03;95079.88;;;16.57;92.68
11099;BME280;12223;42.650;23.364;2023-05-09T08:41:32;95077.09;;;16.25;97.45
11099;BME280;12223;42.650;23.364;2023-05-09T08:44:00;95080.94;;;16.12;100.00
11099;BME280;12223;42.650;23.364;2023-05-09T08:46:31;95077.97;;;16.52;98.17
11099;BME280;12223;42.650;23.364;2023-05-09T08:48:59;95080.06;;;16.28;98.21
11099;BME280;12223;42.650;23.364;2023-05-09T08:51:28;95070.16;;;16.24;96.68
11099;BME280;12223;42.650;23.364;2023-05-09T08:53:56;95081.28;;;16.21;98.19
11099;BME280;12223;42.650;23.364;2023-05-09T08:56:26;95072.69;;;16.35;98.76
11099;BME280;12223;42.650;23.364;2023-05-09T08:58:55;95076.41;;;16.34;98.33
11099;BME280;12223;42.650;23.364;2023-05-09T09:01:25;95087.81;;;16.30;96.03
11099;BME280;12223;42.650;23.364;2023-05-09T09:03:52;95084.72;;;15.49;100.00
11099;BME280;12223;42.650;23.364;2023-05-09T09:06:20;95079.19;;;15.51;100.00
11099;BME280;12223;42.650;23.364;2023-05-09T09:08:48;95080.00;;;14.89;100.00
11099;BME280;12223;42.650;23.364;2023-05-09T09:11:16;95070.56;;;14.99;100.00
11099;BME280;12223;42.650;23.364;2023-05-09T09:13:46;95092.50;;;14.49;100.00
11099;BME280;12223;42.650;23.364;2023-05-09T09:16:17;95080.38;;;14.53;100.00
11099;BME280;12223;42.650;23.364;2023-05-09T09:18:50;95074.91;;;14.60;100.00
11099;BME280;12223;42.650;23.364;2023-05-09T09:21:19;95073.06;;;14.60;100.00
11099;BME280;12223;42.650;23.364;2023-05-09T09:23:47;95086.63;;;14.24;100.00
11099;BME280;12223;42.650;23.364;2023-05-09T09:26:14;95069.75;;;14.30;100.00
11099;BME280;12223;42.650;23.364;2023-05-09T09:28:41;95064.94;;;14.38;100.00
11099;BME280;12223;42.650;23.364;2023-05-09T09:31:23;95076.28;;;14.62;100.00
11099;BME280;12223;42.650;23.364;2023-05-09T09:33:50;95084.06;;;14.52;100.00
11099;BME280;12223;42.650;23.364;2023-05-09T09:36:25;95087.13;;;14.72;100.00
11099;BME280;12223;42.650;23.364;2023-05-09T09:38:55;95089.97;;;14.82;100.00
11099;BME280;12223;42.650;23.364;2023-05-09T09:41:29;95084.88;;;14.81;100.00
11099;BME280;12223;42.650;23.364;2023-05-09T09:43:56;95075.00;;;14.93;100.00
11099;BME280;12223;42.650;23.364;2023-05-09T09:46:25;95084.22;;;15.19;100.00
11099;BME280;12223;42.650;23.364;2023-05-09T09:48:51;95073.44;;;15.09;100.00
11099;BME280;12223;42.650;23.364;2023-05-09T09:51:26;95088.34;;;15.26;100.00
11099;BME280;12223;42.650;23.364;2023-05-09T09:53:54;95076.59;;;15.39;100.00
11099;BME280;12223;42.650;23.364;2023-05-09T09:56:21;95081.25;;;15.60;100.00
11099;BME280;12223;42.650;23.364;2023-05-09T09:59:11;95080.69;;;15.13;100.00
11099;BME280;12223;42.650;23.364;2023-05-09T10:01:57;95089.59;;;15.36;100.00
11099;BME280;12223;42.650;23.364;2023-05-09T10:04:26;95075.88;;;15.27;100.00
11099;BME280;12223;42.650;23.364;2023-05-09T10:06:56;95081.94;;;14.94;100.00
11099;BME280;12223;42.650;23.364;2023-05-09T10:09:25;95081.56;;;15.19;100.00
11099;BME280;12223;42.650;23.364;2023-05-09T10:11:53;95071.34;;;15.11;100.00
11099;BME280;12223;42.650;23.364;2023-05-09T10:14:22;95065.22;;;15.44;100.00
11099;BME280;12223;42.650;23.364;2023-05-09T10:16:51;95064.63;;;15.53;100.00
11099;BME280;12223;42.650;23.364;2023-05-09T10:19:20;95073.88;;;15.84;100.00
11099;BME280;12223;42.650;23.364;2023-05-09T10:21:50;95075.84;;;16.11;100.00
11099;BME280;12223;42.650;23.364;2023-05-09T10:24:26;95078.72;;;15.71;100.00
11099;BME280;12223;42.650;23.364;2023-05-09T10:27:02;95085.81;;;15.48;100.00
11099;BME280;12223;42.650;23.364;2023-05-09T10:29:34;95082.50;;;15.75;100.00
11099;BME280;12223;42.650;23.364;2023-05-09T10:32:10;95064.88;;;15.07;100.00
11099;BME280;12223;42.650;23.364;2023-05-09T10:34:46;95073.66;;;15.52;100.00
11099;BME280;12223;42.650;23.364;2023-05-09T10:37:16;95076.28;;;15.86;100.00
11099;BME280;12223;42.650;23.364;2023-05-09T10:39:44;95054.28;;;15.57;100.00
11099;BME280;12223;42.650;23.364;2023-05-09T10:42:18;95072.69;;;15.58;100.00
11099;BME280;12223;42.650;23.364;2023-05-09T10:44:45;95071.88;;;15.13;100.00
11099;BME280;12223;42.650;23.364;2023-05-09T10:47:16;95072.75;;;14.73;100.00
11099;BME280;12223;42.650;23.364;2023-05-09T10:49:46;95078.59;;;15.15;100.00
11099;BME280;12223;42.650;23.364;2023-05-09T10:52:14;95069.88;;;15.37;100.00
11099;BME280;12223;42.650;23.364;2023-05-09T10:54:41;95085.38;;;15.23;100.00
11099;BME280;12223;42.650;23.364;2023-05-09T10:57:09;95075.56;;;15.40;100.00
11099;BME280;12223;42.650;23.364;2023-05-09T10:59:38;95085.53;;;15.33;100.00
11099;BME280;12223;42.650;23.364;2023-05-09T11:02:11;95075.81;;;15.72;100.00
11099;BME280;12223;42.650;23.364;2023-05-09T11:04:38;95081.88;;;16.06;100.00
11099;BME280;12223;42.650;23.364;2023-05-09T11:07:21;95074.75;;;15.90;100.00
11099;BME280;12223;42.650;23.364;2023-05-09T11:09:50;95078.44;;;15.22;100.00
11099;BME280;12223;42.650;23.364;2023-05-09T11:12:19;95075.66;;;15.00;100.00
11099;BME280;12223;42.650;23.364;2023-05-09T11:14:47;95040.16;;;14.49;100.00
11099;BME280;12223;42.650;23.364;2023-05-09T11:17:28;95069.97;;;14.80;100.00
11099;BME280;12223;42.650;23.364;2023-05-09T11:19:58;95067.44;;;15.02;100.00
11099;BME280;12223;42.650;23.364;2023-05-09T11:22:28;95077.50;;;15.00;100.00
11099;BME280;12223;42.650;23.364;2023-05-09T11:25:03;95071.91;;;14.56;100.00
11099;BME280;12223;42.650;23.364;2023-05-09T11:27:39;95074.50;;;14.79;100.00
11099;BME280;12223;42.650;23.364;2023-05-09T11:30:09;95088.13;;;14.43;100.00
11099;BME280;12223;42.650;23.364;2023-05-09T11:32:44;95080.50;;;14.46;100.00
11099;BME280;12223;42.650;23.364;2023-05-09T11:35:12;95071.69;;;14.58;100.00
11099;BME280;12223;42.650;23.364;2023-05-09T11:37:49;95073.50;;;14.69;100.00
11099;BME280;12223;42.650;23.364;2023-05-09T11:40:18;95072.66;;;14.17;100.00
11099;BME280;12223;42.650;23.364;2023-05-09T11:42:47;95081.94;;;14.02;100.00
11099;BME280;12223;42.650;23.364;2023-05-09T11:45:14;95079.94;;;14.44;100.00
11099;BME280;12223;42.650;23.364;2023-05-09T11:47:42;95064.38;;;14.65;100.00
11099;BME280;12223;42.650;23.364;2023-05-09T11:50:10;95083.25;;;13.65;100.00
11099;BME280;12223;42.650;23.364;2023-05-09T11:52:39;95076.53;;;13.74;100.00
11099;BME280;12223;42.650;23.364;2023-05-09T11:55:11;95071.22;;;13.74;100.00
11099;BME280;12223;42.650;23.364;2023-05-09T11:57:39;95072.41;;;14.30;100.00
11099;BME280;12223;42.650;23.364;2023-05-09T12:00:07;95080.66;;;14.40;100.00
11099;BME280;12223;42.650;23.364;2023-05-09T12:02:34;95071.63;;;14.18;100.00
11099;BME280;12223;42.650;23.364;2023-05-09T12:05:08;95084.03;;;14.00;100.00
11099;BME280;12223;42.650;23.364;2023-05-09T12:07:35;95066.72;;;13.86;100.00
11099;BME280;12223;42.650;23.364;2023-05-09T12:10:08;95072.56;;;14.12;100.00
11099;BME280;12223;42.650;23.364;2023-05-09T12:12:41;95068.19;;;14.05;100.00
11099;BME280;12223;42.650;23.364;2023-05-09T12:15:10;95070.41;;;13.74;100.00
11099;BME280;12223;42.650;23.364;2023-05-09T12:17:38;95069.72;;;14.01;100.00
11099;BME280;12223;42.650;23.364;2023-05-09T12:20:06;95075.47;;;13.98;100.00
11099;BME280;12223;42.650;23.364;2023-05-09T12:22:33;95067.63;;;14.15;100.00
11099;BME280;12223;42.650;23.364;2023-05-09T12:25:05;95077.22;;;13.81;100.00
11099;BME280;12223;42.650;23.364;2023-05-09T12:27:36;95073.19;;;13.90;100.00
11099;BME280;12223;42.650;23.364;2023-05-09T12:30:05;95068.56;;;13.74;100.00
11099;BME280;12223;42.650;23.364;2023-05-09T12:32:33;95077.69;;;13.55;100.00
11099;BME280;12223;42.650;23.364;2023-05-09T12:35:01;95073.50;;;13.36;100.00
11099;BME280;12223;42.650;23.364;2023-05-09T12:37:30;95060.59;;;12.98;100.00
11099;BME280;12223;42.650;23.364;2023-05-09T12:40:04;95064.44;;;13.02;100.00
11099;BME280;12223;42.650;23.364;2023-05-09T12:42:32;95053.94;;;12.95;100.00
11099;BME280;12223;42.650;23.364;2023-05-09T12:45:02;95057.94;;;12.86;100.00
11099;BME280;12223;42.650;23.364;2023-05-09T12:47:30;95048.69;;;12.77;100.00
11099;BME280;12223;42.650;23.364;2023-05-09T12:49:57;95044.22;;;12.89;100.00